Time,TemperatureF,DewpointF,PressureIn,WindDirection,WindDirectionDegrees,WindSpeedMPH,WindSpeedGustMPH,Humidity,HourlyPrecipIn,Conditions,Clouds,dailyrainin,SoftwareType,DateUTC
2013-05-13 00:03:00,40.0,30.0,-100.00,SE,144,0.0,4.0,64,0.00,,,-99.99,,2013-05-13 04:03:00,
2013-05-13 00:12:00,42.0,32.0,-100.00,ENE,60,0.0,4.0,67,0.00,,,-99.99,,2013-05-13 04:12:00,
2013-05-13 00:23:00,42.0,32.0,-100.00,NNE,14,0.0,4.0,68,0.00,,,-99.99,,2013-05-13 04:23:00,
2013-05-13 00:33:00,38.0,28.0,-100.00,ENE,69,0.0,4.0,64,0.00,,,-99.99,,2013-05-13 04:33:00,
2013-05-13 00:42:00,39.0,28.0,-100.00,North,358,0.0,4.0,64,0.00,,,-99.99,,2013-05-13 04:42:00,
2013-05-13 00:53:00,39.0,28.0,-100.00,North,358,0.0,4.0,64,0.00,,,-99.99,,2013-05-13 04:53:00,
2013-05-13 01:02:00,40.0,30.0,-100.00,SE,135,0.0,4.0,67,0.00,,,-99.99,,2013-05-13 05:02:00,
2013-05-13 01:12:00,40.0,30.0,-100.00,SE,135,0.0,4.0,67,0.00,,,-99.99,,2013-05-13 05:12:00,
2013-05-13 01:22:00,40.0,30.0,-100.00,SE,135,0.0,4.0,67,0.00,,,-99.99,,2013-05-13 05:22:00,
2013-05-13 01:32:00,40.0,30.0,-100.00,NE,39,0.0,4.0,66,0.00,,,-99.99,,2013-05-13 05:32:00,
2013-05-13 01:42:00,39.0,28.0,-100.00,NNE,16,0.0,4.0,64,0.00,,,-99.99,,2013-05-13 05:42:00,
2013-05-13 01:52:00,39.0,28.0,-100.00,NNE,16,0.0,4.0,64,0.00,,,-99.99,,2013-05-13 05:52:00,
2013-05-13 02:01:00,39.0,28.0,-100.00,NNE,16,0.0,4.0,64,0.00,,,-99.99,,2013-05-13 06:01:00,
2013-05-13 02:12:00,39.0,28.0,-100.00,NNE,16,0.0,4.0,64,0.00,,,-99.99,,2013-05-13 06:12:00,
2013-05-13 02:22:00,39.0,30.0,-100.00,East,98,0.0,4.0,66,0.00,,,-99.99,,2013-05-13 06:22:00,
2013-05-13 02:32:00,39.0,30.0,-100.00,East,98,0.0,4.0,66,0.00,,,-99.99,,2013-05-13 06:32:00,
2013-05-13 02:42:00,37.0,28.0,-100.00,North,8,0.0,4.0,67,0.00,,,-99.99,,2013-05-13 06:42:00,
2013-05-13 02:52:00,37.0,28.0,-100.00,North,8,0.0,4.0,67,0.00,,,-99.99,,2013-05-13 06:52:00,
2013-05-13 03:01:00,36.0,28.0,-100.00,NE,38,0.0,4.0,71,0.00,,,-99.99,,2013-05-13 07:01:00,
2013-05-13 03:11:00,36.0,28.0,-100.00,NE,38,0.0,4.0,72,0.00,,,-99.99,,2013-05-13 07:11:00,
2013-05-13 03:22:00,35.0,28.0,-100.00,NE,38,0.0,4.0,73,0.00,,,-99.99,,2013-05-13 07:22:00,
2013-05-13 03:32:00,35.0,28.0,-100.00,NE,38,0.0,4.0,75,0.00,,,-99.99,,2013-05-13 07:32:00,
2013-05-13 03:42:00,34.0,28.0,-100.00,NNE,32,0.0,4.0,76,0.00,,,-99.99,,2013-05-13 07:42:00,
2013-05-13 03:52:00,33.0,28.0,-100.00,NNE,32,0.0,4.0,77,0.00,,,-99.99,,2013-05-13 07:52:00,
2013-05-13 04:02:00,33.0,28.0,-100.00,SW,230,0.0,4.0,78,0.00,,,-99.99,,2013-05-13 08:02:00,
2013-05-13 04:11:00,35.0,30.0,-100.00,North,0,0.0,4.0,81,0.00,,,-99.99,,2013-05-13 08:11:00,
2013-05-13 04:21:00,34.0,30.0,-100.00,NNE,12,0.0,4.0,82,0.00,,,-99.99,,2013-05-13 08:21:00,
2013-05-13 04:32:00,34.0,30.0,-100.00,NNE,22,0.0,4.0,84,0.00,,,-99.99,,2013-05-13 08:32:00,
2013-05-13 04:42:00,34.0,30.0,-100.00,NNE,24,0.0,0.0,85,0.00,,,-99.99,,2013-05-13 08:42:00,
2013-05-13 04:51:00,34.0,30.0,-100.00,West,262,0.0,0.0,84,0.00,,,-99.99,,2013-05-13 08:51:00,
2013-05-13 05:01:00,33.0,30.0,-100.00,West,262,0.0,0.0,86,0.00,,,-99.99,,2013-05-13 09:01:00,
2013-05-13 05:11:00,34.0,32.0,-100.00,SW,218,0.0,0.0,86,0.00,,,-99.99,,2013-05-13 09:11:00,
2013-05-13 05:21:00,33.0,30.0,-100.00,WNW,283,0.0,0.0,88,0.00,,,-99.99,,2013-05-13 09:21:00,
2013-05-13 05:33:00,34.0,32.0,-100.00,SSW,211,0.0,0.0,88,0.00,,,-99.99,,2013-05-13 09:33:00,
2013-05-13 05:42:00,34.0,32.0,-100.00,SSW,211,0.0,0.0,88,0.00,,,-99.99,,2013-05-13 09:42:00,
2013-05-13 05:52:00,34.0,32.0,-100.00,North,357,0.0,0.0,88,0.00,,,-99.99,,2013-05-13 09:52:00,
2013-05-13 06:03:00,34.0,32.0,-100.00,North,357,0.0,0.0,88,0.00,,,-99.99,,2013-05-13 10:03:00,
2013-05-13 06:12:00,34.0,32.0,-100.00,North,357,0.0,0.0,88,0.00,,,-99.99,,2013-05-13 10:12:00,
2013-05-13 06:22:00,34.0,32.0,-100.00,North,357,0.0,0.0,88,0.00,,,-99.99,,2013-05-13 10:22:00,
2013-05-13 06:33:00,36.0,32.0,-100.00,North,0,0.0,0.0,85,0.00,,,-99.99,,2013-05-13 10:33:00,
2013-05-13 06:43:00,35.0,32.0,-100.00,North,357,0.0,0.0,84,0.00,,,-99.99,,2013-05-13 10:43:00,
2013-05-13 06:52:00,36.0,32.0,-100.00,NNW,340,0.0,0.0,84,0.00,,,-99.99,,2013-05-13 10:52:00,
2013-05-13 07:02:00,35.0,32.0,-100.00,North,0,0.0,0.0,84,0.00,,,-99.99,,2013-05-13 11:02:00,
2013-05-13 07:12:00,34.0,30.0,-100.00,NNW,344,0.0,0.0,84,0.00,,,-99.99,,2013-05-13 11:12:00,
2013-05-13 07:21:00,35.0,32.0,-100.00,North,7,0.0,0.0,84,0.00,,,-99.99,,2013-05-13 11:21:00,
2013-05-13 07:32:00,35.0,32.0,-100.00,NE,43,0.0,0.0,85,0.00,,,-99.99,,2013-05-13 11:32:00,
2013-05-13 07:42:00,38.0,32.0,-100.00,SE,144,0.0,1.0,80,0.00,,,-99.99,,2013-05-13 11:42:00,
2013-05-13 07:52:00,38.0,30.0,-100.00,East,98,0.0,1.0,71,0.00,,,-99.99,,2013-05-13 11:52:00,
2013-05-13 08:02:00,39.0,30.0,-100.00,SE,135,0.0,1.0,67,0.00,,,-99.99,,2013-05-13 12:02:00,
2013-05-13 08:12:00,40.0,30.0,-100.00,ESE,112,0.0,1.0,66,0.00,,,-99.99,,2013-05-13 12:12:00,
2013-05-13 08:21:00,39.0,28.0,-100.00,SE,134,1.0,1.0,64,0.00,,,-99.99,,2013-05-13 12:21:00,
2013-05-13 08:32:00,39.0,28.0,-100.00,SE,134,1.0,1.0,64,0.00,,,-99.99,,2013-05-13 12:32:00,
2013-05-13 08:42:00,39.0,28.0,-100.00,SE,134,1.0,1.0,64,0.00,,,-99.99,,2013-05-13 12:42:00,
2013-05-13 08:51:00,39.0,28.0,-100.00,SE,134,1.0,1.0,64,0.00,,,-99.99,,2013-05-13 12:51:00,
2013-05-13 09:01:00,42.0,28.0,-100.00,SE,125,2.0,4.0,55,0.00,,,-99.99,,2013-05-13 13:01:00,
2013-05-13 09:11:00,43.0,28.0,-100.00,SE,144,1.0,4.0,54,0.00,,,-99.99,,2013-05-13 13:11:00,
2013-05-13 09:21:00,41.0,28.0,-100.00,South,169,1.0,4.0,56,0.00,,,-99.99,,2013-05-13 13:21:00,
2013-05-13 09:32:00,42.0,28.0,-100.00,SE,145,0.0,4.0,54,0.00,,,-99.99,,2013-05-13 13:32:00,
2013-05-13 09:42:00,43.0,28.0,-100.00,SSE,151,1.0,4.0,53,0.00,,,-99.99,,2013-05-13 13:42:00,
2013-05-13 09:52:00,43.0,27.0,-100.00,NE,40,1.0,4.0,51,0.00,,,-99.99,,2013-05-13 13:52:00,
2013-05-13 10:02:00,43.0,27.0,-100.00,NE,40,1.0,4.0,51,0.00,,,-99.99,,2013-05-13 14:02:00,
2013-05-13 10:11:00,43.0,27.0,-100.00,NE,40,1.0,4.0,51,0.00,,,-99.99,,2013-05-13 14:11:00,
2013-05-13 10:22:00,44.0,27.0,-100.00,ENE,73,1.0,4.0,49,0.00,,,-99.99,,2013-05-13 14:22:00,
2013-05-13 10:32:00,44.0,27.0,-100.00,ENE,66,1.0,4.0,49,0.00,,,-99.99,,2013-05-13 14:32:00,
2013-05-13 10:42:00,45.0,28.0,-100.00,East,80,1.0,4.0,51,0.00,,,-99.99,,2013-05-13 14:42:00,
2013-05-13 10:51:00,45.0,28.0,-100.00,East,80,1.0,4.0,51,0.00,,,-99.99,,2013-05-13 14:51:00,
2013-05-13 11:01:00,45.0,28.0,-100.00,East,80,1.0,4.0,51,0.00,,,-99.99,,2013-05-13 15:01:00,
2013-05-13 11:11:00,45.0,28.0,-100.00,South,183,0.0,4.0,49,0.00,,,-99.99,,2013-05-13 15:11:00,
2013-05-13 11:21:00,44.0,28.0,-100.00,SSE,160,1.0,4.0,51,0.00,,,-99.99,,2013-05-13 15:21:00,
2013-05-13 11:32:00,44.0,25.0,-100.00,NE,38,0.0,4.0,45,0.00,,,-99.99,,2013-05-13 15:32:00,
2013-05-13 11:42:00,45.0,27.0,-100.00,NNE,15,1.0,4.0,45,0.00,,,-99.99,,2013-05-13 15:42:00,
2013-05-13 11:53:00,44.0,27.0,-100.00,ESE,120,1.0,4.0,47,0.00,,,-99.99,,2013-05-13 15:53:00,
2013-05-13 12:03:00,45.0,27.0,-100.00,East,88,1.0,4.0,46,0.00,,,-99.99,,2013-05-13 16:03:00,
2013-05-13 12:12:00,47.0,27.0,-100.00,East,98,0.0,4.0,42,0.00,,,-99.99,,2013-05-13 16:12:00,
2013-05-13 12:21:00,45.0,27.0,-100.00,SSE,149,1.0,4.0,46,0.00,,,-99.99,,2013-05-13 16:21:00,
2013-05-13 12:33:00,45.0,27.0,-100.00,SSE,149,1.0,4.0,46,0.00,,,-99.99,,2013-05-13 16:33:00,
2013-05-13 12:42:00,45.0,27.0,-100.00,SSE,149,1.0,4.0,46,0.00,,,-99.99,,2013-05-13 16:42:00,
2013-05-13 12:52:00,45.0,27.0,-100.00,SSE,149,1.0,4.0,46,0.00,,,-99.99,,2013-05-13 16:52:00,
2013-05-13 13:02:00,46.0,27.0,-100.00,SW,217,1.0,4.0,44,0.00,,,-99.99,,2013-05-13 17:02:00,
2013-05-13 13:12:00,47.0,30.0,-100.00,NNW,348,0.0,4.0,50,0.00,,,-99.99,,2013-05-13 17:12:00,
2013-05-13 13:21:00,48.0,27.0,-100.00,SSW,211,0.0,4.0,42,0.00,,,-99.99,,2013-05-13 17:21:00,
2013-05-13 13:32:00,48.0,27.0,-100.00,West,273,0.0,4.0,40,0.00,,,-99.99,,2013-05-13 17:32:00,
2013-05-13 13:42:00,47.0,25.0,-100.00,ESE,121,1.0,4.0,41,0.00,,,-99.99,,2013-05-13 17:42:00,
2013-05-13 13:54:00,47.0,27.0,-100.00,ENE,76,1.0,4.0,45,0.00,,,-99.99,,2013-05-13 17:54:00,
2013-05-13 14:04:00,47.0,28.0,-100.00,ESE,120,0.0,4.0,45,0.00,,,-99.99,,2013-05-13 18:04:00,
2013-05-13 14:13:00,47.0,28.0,-100.00,ESE,120,0.0,4.0,45,0.00,,,-99.99,,2013-05-13 18:13:00,
2013-05-13 14:23:00,47.0,28.0,-100.00,ESE,120,0.0,4.0,45,0.00,,,-99.99,,2013-05-13 18:23:00,
2013-05-13 14:32:00,47.0,25.0,-100.00,SW,220,0.0,4.0,41,0.00,,,-99.99,,2013-05-13 18:32:00,
2013-05-13 14:42:00,47.0,25.0,-100.00,SW,220,0.0,4.0,41,0.00,,,-99.99,,2013-05-13 18:42:00,
2013-05-13 14:52:00,47.0,25.0,-100.00,SW,220,0.0,4.0,41,0.00,,,-99.99,,2013-05-13 18:52:00,
2013-05-13 15:01:00,47.0,27.0,-100.00,SE,142,0.0,4.0,42,0.00,,,-99.99,,2013-05-13 19:01:00,
2013-05-13 15:12:00,47.0,27.0,-100.00,SSE,162,2.0,4.0,44,0.00,,,-99.99,,2013-05-13 19:12:00,
2013-05-13 15:22:00,47.0,27.0,-100.00,SSE,162,2.0,4.0,44,0.00,,,-99.99,,2013-05-13 19:22:00,
2013-05-13 15:32:00,47.0,27.0,-100.00,SSE,162,2.0,4.0,44,0.00,,,-99.99,,2013-05-13 19:32:00,
2013-05-13 15:44:00,47.0,27.0,-100.00,SSE,162,2.0,4.0,44,0.00,,,-99.99,,2013-05-13 19:44:00,
2013-05-13 16:02:00,49.0,27.0,-100.00,ESE,108,1.0,4.0,40,0.00,,,-99.99,,2013-05-13 20:02:00,
2013-05-13 16:11:00,50.0,23.0,-100.00,SSE,152,2.0,4.0,33,0.00,,,-99.99,,2013-05-13 20:11:00,
2013-05-13 16:23:00,49.0,27.0,-100.00,SE,132,0.0,4.0,41,0.00,,,-99.99,,2013-05-13 20:23:00,
2013-05-13 16:34:00,48.0,23.0,-100.00,SE,132,0.0,4.0,36,0.00,,,-99.99,,2013-05-13 20:34:00,
2013-05-13 16:44:00,49.0,27.0,-100.00,North,4,0.0,4.0,41,0.00,,,-99.99,,2013-05-13 20:44:00,
2013-05-13 16:53:00,49.0,25.0,-100.00,East,96,2.0,4.0,38,0.00,,,-99.99,,2013-05-13 20:53:00,
2013-05-13 17:03:00,49.0,25.0,-100.00,North,11,1.0,4.0,38,0.00,,,-99.99,,2013-05-13 21:03:00,
2013-05-13 17:14:00,49.0,25.0,-100.00,North,11,1.0,4.0,38,0.00,,,-99.99,,2013-05-13 21:14:00,
2013-05-13 17:23:00,49.0,25.0,-100.00,North,11,1.0,4.0,38,0.00,,,-99.99,,2013-05-13 21:23:00,
2013-05-13 17:33:00,49.0,25.0,-100.00,SE,127,1.0,4.0,38,0.00,,,-99.99,,2013-05-13 21:33:00,
2013-05-13 17:43:00,48.0,27.0,-100.00,ESE,115,1.0,4.0,40,0.00,,,-99.99,,2013-05-13 21:43:00,
2013-05-13 17:53:00,48.0,27.0,-100.00,NE,38,1.0,4.0,40,0.00,,,-99.99,,2013-05-13 21:53:00,
2013-05-13 18:02:00,48.0,27.0,-100.00,NE,38,1.0,4.0,40,0.00,,,-99.99,,2013-05-13 22:02:00,
2013-05-13 18:12:00,48.0,28.0,-100.00,ENE,73,1.0,4.0,46,0.00,,,-99.99,,2013-05-13 22:12:00,
2013-05-13 18:23:00,48.0,28.0,-100.00,ENE,73,1.0,4.0,46,0.00,,,-99.99,,2013-05-13 22:23:00,
2013-05-13 18:32:00,47.0,27.0,-100.00,SSE,152,0.0,4.0,42,0.00,,,-99.99,,2013-05-13 22:32:00,
2013-05-13 18:43:00,48.0,27.0,-100.00,NW,323,0.0,4.0,42,0.00,,,-99.99,,2013-05-13 22:43:00,
2013-05-13 18:52:00,48.0,27.0,-100.00,SE,136,0.0,4.0,42,0.00,,,-99.99,,2013-05-13 22:52:00,
2013-05-13 19:02:00,45.0,27.0,-100.00,ENE,76,1.0,4.0,45,0.00,,,-99.99,,2013-05-13 23:02:00,
2013-05-13 19:13:00,46.0,25.0,-100.00,West,275,1.0,4.0,42,0.00,,,-99.99,,2013-05-13 23:13:00,
2013-05-13 19:23:00,46.0,27.0,-100.00,East,96,1.0,4.0,44,0.00,,,-99.99,,2013-05-13 23:23:00,
2013-05-13 19:34:00,46.0,25.0,-100.00,ENE,67,0.0,4.0,42,0.00,,,-99.99,,2013-05-13 23:34:00,
2013-05-13 19:42:00,46.0,25.0,-100.00,ENE,67,0.0,4.0,42,0.00,,,-99.99,,2013-05-13 23:42:00,
2013-05-13 19:53:00,46.0,27.0,-100.00,SW,214,0.0,4.0,46,0.00,,,-99.99,,2013-05-13 23:53:00,
2013-05-13 20:02:00,46.0,27.0,-100.00,SSW,203,1.0,4.0,46,0.00,,,-99.99,,2013-05-14 00:02:00,
2013-05-13 20:13:00,45.0,27.0,-100.00,SSW,201,0.0,4.0,47,0.00,,,-99.99,,2013-05-14 00:13:00,
2013-05-13 20:22:00,45.0,28.0,-100.00,ESE,103,0.0,4.0,51,0.00,,,-99.99,,2013-05-14 00:22:00,
2013-05-13 20:32:00,45.0,28.0,-100.00,ESE,103,0.0,4.0,51,0.00,,,-99.99,,2013-05-14 00:32:00,
2013-05-13 20:42:00,44.0,32.0,-100.00,ENE,66,0.0,4.0,59,0.00,,,-99.99,,2013-05-14 00:42:00,
2013-05-13 20:51:00,42.0,32.0,-100.00,ENE,72,0.0,4.0,63,0.00,,,-99.99,,2013-05-14 00:51:00,
2013-05-13 21:02:00,41.0,30.0,-100.00,ENE,72,0.0,4.0,64,0.00,,,-99.99,,2013-05-14 01:02:00,
2013-05-13 21:11:00,41.0,32.0,-100.00,SW,217,0.0,4.0,68,0.00,,,-99.99,,2013-05-14 01:11:00,
2013-05-13 21:21:00,43.0,34.0,-100.00,SW,214,0.0,4.0,71,0.00,,,-99.99,,2013-05-14 01:21:00,
2013-05-13 21:32:00,39.0,32.0,-100.00,WSW,251,0.0,4.0,73,0.00,,,-99.99,,2013-05-14 01:32:00,
2013-05-13 21:43:00,38.0,32.0,-100.00,North,8,0.0,4.0,76,0.00,,,-99.99,,2013-05-14 01:43:00,
2013-05-13 21:53:00,38.0,32.0,-100.00,WSW,244,0.0,4.0,76,0.00,,,-99.99,,2013-05-14 01:53:00,
2013-05-13 22:02:00,38.0,32.0,-100.00,WSW,244,0.0,4.0,76,0.00,,,-99.99,,2013-05-14 02:02:00,
2013-05-13 22:12:00,36.0,30.0,-100.00,NNW,344,0.0,4.0,78,0.00,,,-99.99,,2013-05-14 02:12:00,
2013-05-13 22:22:00,36.0,30.0,-100.00,NNW,344,0.0,4.0,78,0.00,,,-99.99,,2013-05-14 02:22:00,
2013-05-13 22:32:00,37.0,32.0,-100.00,NNW,334,0.0,4.0,84,0.00,,,-99.99,,2013-05-14 02:32:00,
2013-05-13 22:42:00,37.0,32.0,-100.00,SW,232,0.0,4.0,85,0.00,,,-99.99,,2013-05-14 02:42:00,
2013-05-13 22:52:00,36.0,32.0,-100.00,WSW,248,0.0,4.0,86,0.00,,,-99.99,,2013-05-14 02:52:00,
2013-05-13 23:01:00,35.0,32.0,-100.00,WSW,248,0.0,4.0,86,0.00,,,-99.99,,2013-05-14 03:01:00,
2013-05-13 23:11:00,34.0,32.0,-100.00,West,279,0.0,4.0,88,0.00,,,-99.99,,2013-05-14 03:11:00,
2013-05-13 23:21:00,34.0,32.0,-100.00,SSW,211,0.0,4.0,86,0.00,,,-99.99,,2013-05-14 03:21:00,
2013-05-13 23:33:00,34.0,32.0,-100.00,ENE,57,0.0,4.0,89,0.00,,,-99.99,,2013-05-14 03:33:00,
2013-05-13 23:42:00,34.0,32.0,-100.00,ENE,57,0.0,4.0,89,0.00,,,-99.99,,2013-05-14 03:42:00,
2013-05-13 23:52:00,35.0,32.0,-100.00,West,272,0.0,4.0,90,0.00,,,-99.99,,2013-05-14 03:52:00,